Time;durP1;ratioP1;P1;durP2;ratioP2;P2;SDS_P1;SDS_P2;PMS_P1;PMS_P2;Temp;Humidity;BMP_temperature;BMP_pressure;BME280_temperature;BME280_humidity;BME280_pressure;Samples;Min_cycle;Max_cycle;Signal;HPM_P1;HPM_P2
2022/05/31 00:02:00;;;;;;;5.40;2.80;;;16.90;47.30;;;;;;4990642;28;20767;-43
2022/05/31 00:04:26;;;;;;;3.23;2.93;;;16.90;47.40;;;;;;4990979;28;20212;-43
2022/05/31 00:06:51;;;;;;;2.90;2.70;;;16.90;47.50;;;;;;4990641;28;20528;-43
2022/05/31 00:09:17;;;;;;;2.67;2.23;;;16.80;47.50;;;;;;4991256;28;20186;-44
2022/05/31 00:11:43;;;;;;;6.43;2.80;;;16.80;47.50;;;;;;4990036;28;20233;-43
2022/05/31 00:14:11;;;;;;;3.03;2.80;;;16.80;47.40;;;;;;4990038;28;20319;-44
2022/05/31 00:16:36;;;;;;;3.10;2.37;;;16.80;47.50;;;;;;4990084;28;20272;-42
2022/05/31 00:19:03;;;;;;;3.10;2.80;;;16.70;47.50;;;;;;4990826;28;20433;-44
2022/05/31 00:21:38;;;;;;;2.50;2.30;;;16.70;47.50;;;;;;4990636;28;20241;-44
2022/05/31 00:24:06;;;;;;;3.30;2.80;;;16.70;47.70;;;;;;4990666;28;20429;-43
2022/05/31 00:26:32;;;;;;;3.10;2.90;;;16.70;47.80;;;;;;4990342;28;20927;-42
2022/05/31 00:28:58;;;;;;;3.10;2.90;;;16.70;48.00;;;;;;4990893;28;20422;-42
2022/05/31 00:31:23;;;;;;;2.90;2.70;;;16.60;47.90;;;;;;4990910;28;20214;-42
2022/05/31 00:33:49;;;;;;;2.80;2.60;;;16.60;47.90;;;;;;4990629;28;20277;-43
2022/05/31 00:36:16;;;;;;;3.33;3.03;;;16.60;47.90;;;;;;4978781;28;20207;-42
2022/05/31 00:38:42;;;;;;;3.20;2.90;;;16.50;47.80;;;;;;4971608;28;20214;-42
2022/05/31 00:41:25;;;;;;;5.13;2.60;;;16.50;47.70;;;;;;4969989;28;20430;-43
2022/05/31 00:44:10;;;;;;;3.00;2.80;;;16.50;47.70;;;;;;4971168;28;20478;-43
2022/05/31 00:46:50;;;;;;;2.97;2.73;;;16.50;47.80;;;;;;4970711;28;20444;-44
2022/05/31 00:49:27;;;;;;;2.80;2.60;;;16.40;47.70;;;;;;4971620;28;20490;-43
2022/05/31 00:51:55;;;;;;;3.40;3.10;;;16.40;47.50;;;;;;4977335;28;20468;-43
2022/05/31 00:54:23;;;;;;;3.67;3.10;;;16.40;47.80;;;;;;4981262;28;20500;-43
2022/05/31 00:56:51;;;;;;;6.73;2.80;;;16.40;48.10;;;;;;4978573;28;20466;-44
2022/05/31 00:59:33;;;;;;;3.20;2.80;;;16.40;48.10;;;;;;4990701;28;20441;-45
2022/05/31 01:02:00;;;;;;;3.30;3.00;;;16.40;48.30;;;;;;4989840;28;20434;-42
2022/05/31 01:04:34;;;;;;;3.63;3.30;;;16.40;48.30;;;;;;4990179;28;20425;-43
2022/05/31 01:07:00;;;;;;;4.50;3.20;;;16.30;48.40;;;;;;4990076;28;20873;-44
2022/05/31 01:09:27;;;;;;;2.83;2.60;;;16.30;48.40;;;;;;4988964;28;20521;-43
2022/05/31 01:11:53;;;;;;;3.40;3.00;;;16.30;48.30;;;;;;4990169;28;20198;-43
2022/05/31 01:14:19;;;;;;;5.57;2.57;;;16.30;48.20;;;;;;5004802;28;20485;-44
2022/05/31 01:16:56;;;;;;;4.83;3.23;;;16.30;48.30;;;;;;4990096;28;20191;-43
2022/05/31 01:22:06;;;;;;;2.93;2.73;;;16.20;48.40;;;;;;4991564;28;20437;-45
2022/05/31 01:24:41;;;;;;;3.43;2.70;;;16.10;48.30;;;;;;4993904;28;20426;-43
2022/05/31 01:27:25;;;;;;;3.40;2.70;;;16.10;48.40;;;;;;4993719;28;20198;-43
2022/05/31 01:29:52;;;;;;;4.00;2.90;;;16.10;48.50;;;;;;4994083;28;20445;-43
2022/05/31 01:32:17;;;;;;;5.13;2.90;;;16.10;48.50;;;;;;4993460;28;20432;-45
2022/05/31 01:34:55;;;;;;;3.40;2.60;;;16.00;48.50;;;;;;4993429;28;20481;-43
2022/05/31 01:37:48;;;;;;;2.77;2.57;;;16.00;48.60;;;;;;4992570;28;20198;-43
2022/05/31 01:40:24;;;;;;;5.87;3.10;;;16.00;48.50;;;;;;4993855;28;20426;-42
2022/05/31 01:42:50;;;;;;;2.80;2.60;;;16.00;48.50;;;;;;4993301;28;20425;-44
2022/05/31 01:45:21;;;;;;;3.80;2.87;;;16.00;48.60;;;;;;4994001;28;20780;-42
2022/05/31 01:47:47;;;;;;;3.80;3.13;;;15.90;48.60;;;;;;4993805;28;20186;-42
2022/05/31 01:50:16;;;;;;;3.37;3.07;;;15.90;48.60;;;;;;4993800;28;20572;-43
2022/05/31 01:52:44;;;;;;;2.67;2.47;;;15.90;48.70;;;;;;4992996;28;20198;-43
2022/05/31 01:55:11;;;;;;;2.97;2.77;;;15.90;48.70;;;;;;4977913;28;20885;-44
2022/05/31 01:57:38;;;;;;;2.30;2.20;;;15.90;48.60;;;;;;4987635;28;20429;-44
2022/05/31 02:00:12;;;;;;;3.47;2.40;;;15.90;48.60;;;;;;4993383;28;20426;-43
2022/05/31 02:02:38;;;;;;;3.10;2.90;;;15.90;48.60;;;;;;4991284;28;20500;-44
2022/05/31 02:05:05;;;;;;;2.73;2.53;;;15.80;48.80;;;;;;4992894;28;20426;-43
2022/05/31 02:07:31;;;;;;;2.80;2.60;;;15.60;49.40;;;;;;4992628;28;20487;-43
2022/05/31 02:09:57;;;;;;;3.80;2.93;;;15.60;49.60;;;;;;4993328;28;20430;-43
2022/05/31 02:12:26;;;;;;;2.93;2.60;;;15.60;49.40;;;;;;4992703;28;20426;-43
2022/05/31 02:14:52;;;;;;;2.90;2.70;;;15.60;49.70;;;;;;4992735;28;21108;-43
2022/05/31 02:17:17;;;;;;;3.17;2.97;;;15.50;49.60;;;;;;4992859;28;20505;-44
2022/05/31 02:19:44;;;;;;;3.60;2.70;;;15.50;49.60;;;;;;4993288;28;20199;-43
2022/05/31 02:22:17;;;;;;;2.77;2.57;;;15.50;49.70;;;;;;4992596;28;20245;-44
2022/05/31 02:24:43;;;;;;;2.60;2.37;;;15.50;49.80;;;;;;4992586;28;20444;-42
2022/05/31 02:27:10;;;;;;;3.00;2.80;;;15.50;49.90;;;;;;4992423;28;20433;-43
2022/05/31 02:29:38;;;;;;;4.90;2.87;;;15.50;49.90;;;;;;4991600;28;20225;-42
2022/05/31 02:32:06;;;;;;;3.67;3.00;;;15.40;49.90;;;;;;4992508;28;20436;-44
2022/05/31 02:34:38;;;;;;;3.47;3.17;;;15.40;50.00;;;;;;4991803;28;20493;-46
2022/05/31 02:37:04;;;;;;;3.00;2.80;;;15.40;50.10;;;;;;4992431;28;20505;-43
2022/05/31 02:39:29;;;;;;;3.57;2.80;;;15.40;50.20;;;;;;4992747;28;20501;-42
2022/05/31 02:41:56;;;;;;;3.43;3.13;;;15.40;50.10;;;;;;4992424;28;20509;-43
2022/05/31 02:44:22;;;;;;;2.50;2.30;;;15.40;50.20;;;;;;4992410;28;20202;-43
2022/05/31 02:46:47;;;;;;;3.60;3.30;;;15.40;50.10;;;;;;4992147;28;20437;-43
2022/05/31 02:49:13;;;;;;;2.90;2.70;;;15.40;50.40;;;;;;4992650;28;20202;-43
2022/05/31 02:51:42;;;;;;;2.90;2.70;;;15.40;50.50;;;;;;4991885;28;20611;-44
2022/05/31 02:54:09;;;;;;;3.57;2.80;;;15.40;50.40;;;;;;4984985;28;20322;-42
2022/05/31 02:56:35;;;;;;;3.83;3.10;;;15.40;50.50;;;;;;4976563;28;20440;-43
2022/05/31 02:59:01;;;;;;;3.00;2.80;;;15.30;50.50;;;;;;4992565;28;20429;-43
2022/05/31 03:01:30;;;;;;;2.60;2.40;;;15.30;50.60;;;;;;4991846;28;20236;-44
2022/05/31 03:03:56;;;;;;;4.33;3.20;;;15.30;50.40;;;;;;4991709;28;20199;-42
2022/05/31 03:06:22;;;;;;;5.90;2.80;;;15.30;50.20;;;;;;4991832;28;20422;-44
2022/05/31 03:08:48;;;;;;;2.97;2.70;;;15.20;50.40;;;;;;4992472;28;20440;-43
2022/05/31 03:11:23;;;;;;;3.13;2.83;;;15.20;50.40;;;;;;4991571;28;20516;-43
2022/05/31 03:13:52;;;;;;;6.13;3.10;;;15.20;50.40;;;;;;4991628;28;20479;-44
2022/05/31 03:16:18;;;;;;;3.67;3.27;;;15.10;50.40;;;;;;4991692;28;21057;-42
2022/05/31 03:18:52;;;;;;;3.20;3.00;;;15.10;50.40;;;;;;4992014;28;20496;-42
2022/05/31 03:21:22;;;;;;;3.20;2.90;;;15.10;50.70;;;;;;4991687;28;20425;-43
2022/05/31 03:23:54;;;;;;;3.37;2.90;;;15.10;50.90;;;;;;4990000;28;20426;-42
2022/05/31 03:26:22;;;;;;;3.20;2.87;;;15.10;50.90;;;;;;4991533;28;20464;-43
2022/05/31 03:28:48;;;;;;;3.40;3.10;;;15.20;50.90;;;;;;4992082;28;20457;-43
2022/05/31 03:31:15;;;;;;;3.50;3.20;;;15.10;50.80;;;;;;4991525;28;20429;-43
2022/05/31 03:33:40;;;;;;;3.73;2.93;;;15.00;50.70;;;;;;4991288;28;20203;-43
2022/05/31 03:36:06;;;;;;;3.53;3.00;;;15.00;50.60;;;;;;4991167;28;20540;-42
2022/05/31 03:38:31;;;;;;;3.40;2.90;;;14.90;50.70;;;;;;4991690;28;20650;-43
2022/05/31 03:40:58;;;;;;;6.77;3.20;;;14.80;51.70;;;;;;4990992;28;20197;-42
2022/05/31 03:43:26;;;;;;;3.70;3.40;;;14.80;51.40;;;;;;4991339;28;20468;-44
2022/05/31 03:45:52;;;;;;;3.20;2.90;;;14.80;51.60;;;;;;4990146;28;20456;-43
2022/05/31 03:48:18;;;;;;;5.00;2.73;;;14.70;52.00;;;;;;4991591;28;20441;-43
2022/05/31 03:50:44;;;;;;;6.30;3.10;;;14.60;52.60;;;;;;4989653;28;20426;-42
2022/05/31 03:53:14;;;;;;;3.20;2.90;;;14.50;52.50;;;;;;4990852;28;20430;-43
2022/05/31 03:55:42;;;;;;;4.30;2.83;;;14.50;52.60;;;;;;4971216;28;20498;-43
2022/05/31 03:58:08;;;;;;;4.40;2.93;;;14.50;52.60;;;;;;4990238;28;20430;-42
2022/05/31 04:00:34;;;;;;;4.07;2.87;;;14.60;52.40;;;;;;4990829;28;20425;-42
2022/05/31 04:03:00;;;;;;;3.93;2.83;;;14.70;52.10;;;;;;4990816;28;20441;-42
2022/05/31 04:05:26;;;;;;;2.80;2.60;;;14.80;52.00;;;;;;4990985;28;20933;-43
2022/05/31 04:07:52;;;;;;;3.10;2.80;;;14.80;51.60;;;;;;4991157;28;20199;-43
2022/05/31 04:10:18;;;;;;;2.70;2.50;;;14.90;51.50;;;;;;4991024;28;20422;-43
2022/05/31 04:12:44;;;;;;;4.20;3.90;;;15.00;51.60;;;;;;4990354;28;20437;-42
2022/05/31 04:15:10;;;;;;;3.00;2.60;;;15.00;51.50;;;;;;4991377;28;20226;-44
2022/05/31 04:17:35;;;;;;;7.23;2.83;;;14.80;52.20;;;;;;4989223;28;20230;-43
2022/05/31 04:20:01;;;;;;;3.20;2.90;;;14.80;52.30;;;;;;4990857;28;20473;-43
2022/05/31 04:22:26;;;;;;;3.57;2.60;;;14.80;51.90;;;;;;4990490;28;20198;-42
2022/05/31 04:24:54;;;;;;;3.40;2.67;;;14.90;51.90;;;;;;4991166;28;20241;-43
2022/05/31 04:27:21;;;;;;;3.10;2.80;;;15.00;51.90;;;;;;4990133;28;20221;-43
2022/05/31 04:29:47;;;;;;;3.60;2.60;;;15.00;51.90;;;;;;4991184;28;20440;-42
2022/05/31 04:32:15;;;;;;;3.20;2.90;;;15.00;52.10;;;;;;4990349;28;20426;-42
2022/05/31 04:34:42;;;;;;;2.90;2.70;;;14.90;52.30;;;;;;4990560;28;20904;-43
2022/05/31 04:37:09;;;;;;;3.27;3.00;;;14.80;52.40;;;;;;4990628;28;20434;-42
2022/05/31 04:39:34;;;;;;;4.20;3.23;;;14.70;52.70;;;;;;4990881;28;20430;-43
2022/05/31 04:42:00;;;;;;;3.13;2.80;;;14.80;52.80;;;;;;4990661;28;20805;-43
2022/05/31 04:44:26;;;;;;;3.13;2.90;;;14.80;52.80;;;;;;4989134;28;20186;-43
2022/05/31 04:46:52;;;;;;;6.10;3.00;;;14.80;52.80;;;;;;4990228;28;20233;-42
2022/05/31 04:49:18;;;;;;;4.33;3.23;;;14.70;53.00;;;;;;4991151;28;20434;-43
2022/05/31 04:51:44;;;;;;;2.97;2.77;;;14.80;53.00;;;;;;4990286;28;20432;-42
2022/05/31 04:54:09;;;;;;;5.23;3.60;;;14.80;52.90;;;;;;4983094;28;20571;-43
2022/05/31 04:56:36;;;;;;;5.33;3.03;;;14.90;53.00;;;;;;4977239;28;20257;-43
2022/05/31 04:59:02;;;;;;;3.30;2.67;;;14.90;53.00;;;;;;4994825;28;20205;-43
2022/05/31 05:01:28;;;;;;;3.27;3.07;;;15.00;53.00;;;;;;4994020;28;20456;-43
2022/05/31 05:03:54;;;;;;;6.97;3.80;;;14.80;53.20;;;;;;4994503;28;20965;-43
2022/05/31 05:06:21;;;;;;;4.43;3.97;;;14.80;53.40;;;;;;4993954;28;20204;-42
2022/05/31 05:08:47;;;;;;;4.17;3.77;;;14.60;54.00;;;;;;4994570;28;20433;-42
2022/05/31 05:11:19;;;;;;;3.73;3.43;;;14.00;55.00;;;;;;4992236;28;20426;-43
2022/05/31 05:13:45;;;;;;;4.20;3.53;;;13.40;56.80;;;;;;4994203;28;20879;-43
2022/05/31 05:16:12;;;;;;;3.90;3.50;;;13.40;57.60;;;;;;4993865;28;20521;-43
2022/05/31 05:18:38;;;;;;;5.03;4.37;;;13.50;57.60;;;;;;4994188;28;20249;-42
2022/05/31 05:21:06;;;;;;;3.60;3.30;;;13.30;57.60;;;;;;4993772;28;20509;-42
2022/05/31 05:23:32;;;;;;;5.13;3.60;;;13.40;57.40;;;;;;5008809;28;20445;-43
2022/05/31 05:25:59;;;;;;;5.03;3.20;;;13.50;57.20;;;;;;4993636;28;20794;-42
2022/05/31 05:31:27;;;;;;;4.70;3.90;;;14.00;57.00;;;;;;4993652;28;20444;-42
2022/05/31 05:33:57;;;;;;;4.70;3.80;;;14.40;56.00;;;;;;4993616;28;20436;-44
2022/05/31 05:36:24;;;;;;;3.97;3.67;;;14.50;55.40;;;;;;4993485;28;20935;-42
2022/05/31 05:38:50;;;;;;;4.83;3.23;;;14.60;55.40;;;;;;4992339;28;20441;-43
2022/05/31 05:41:17;;;;;;;3.70;3.40;;;14.90;55.40;;;;;;4993227;28;20464;-43
2022/05/31 05:43:43;;;;;;;4.20;3.40;;;15.10;54.60;;;;;;4993327;28;20421;-43
2022/05/31 05:46:28;;;;;;;4.70;3.30;;;15.20;54.20;;;;;;4993230;28;21297;-42
2022/05/31 05:48:54;;;;;;;3.70;3.27;;;15.40;53.50;;;;;;4993667;28;20253;-43
2022/05/31 05:51:23;;;;;;;3.77;3.47;;;15.70;52.80;;;;;;4992918;28;20450;-42
2022/05/31 05:53:50;;;;;;;3.30;3.00;;;15.80;52.40;;;;;;4988767;28;20430;-42
2022/05/31 05:56:17;;;;;;;3.00;2.80;;;16.00;52.50;;;;;;4976574;28;20480;-43
2022/05/31 05:58:43;;;;;;;4.17;3.80;;;16.30;52.30;;;;;;4993264;28;20992;-44
2022/05/31 06:01:24;;;;;;;3.77;3.47;;;16.50;52.10;;;;;;4992971;28;20452;-43
2022/05/31 06:04:12;;;;;;;4.07;3.63;;;16.70;51.70;;;;;;4993261;28;20424;-43
2022/05/31 06:06:41;;;;;;;4.20;2.83;;;16.90;51.10;;;;;;4992044;28;20426;-43
2022/05/31 06:09:12;;;;;;;3.70;3.40;;;17.00;50.60;;;;;;4992213;28;20422;-44
2022/05/31 06:11:53;;;;;;;3.87;3.57;;;17.20;50.60;;;;;;4992891;28;20430;-42
2022/05/31 06:14:37;;;;;;;4.70;3.47;;;17.10;51.40;;;;;;4993141;28;20489;-43
2022/05/31 06:17:13;;;;;;;4.77;3.97;;;17.20;51.10;;;;;;4992545;28;20799;-45
2022/05/31 06:19:40;;;;;;;5.63;3.43;;;17.30;50.90;;;;;;4993175;28;20441;-42
2022/05/31 06:22:07;;;;;;;3.20;2.90;;;17.50;50.70;;;;;;4992667;28;20460;-43
2022/05/31 06:24:35;;;;;;;4.10;3.70;;;17.70;50.10;;;;;;4992813;28;20440;-44
2022/05/31 06:27:00;;;;;;;4.50;3.50;;;17.80;49.50;;;;;;4992395;28;20422;-43
2022/05/31 06:29:29;;;;;;;3.67;3.00;;;17.90;49.50;;;;;;4992852;28;20426;-43
2022/05/31 06:31:55;;;;;;;4.13;3.80;;;17.90;49.00;;;;;;4990934;28;20614;-43
2022/05/31 06:34:22;;;;;;;3.93;3.63;;;18.00;49.20;;;;;;5007728;28;20973;-44
2022/05/31 06:36:49;;;;;;;4.20;3.80;;;18.10;49.10;;;;;;4992337;28;20921;-43
2022/05/31 06:39:14;;;;;;;3.40;3.20;;;18.00;49.00;;;;;;4992744;28;20513;-44
2022/05/31 06:41:40;;;;;;;3.83;3.43;;;17.90;49.20;;;;;;4991999;28;20520;-45
2022/05/31 06:44:06;;;;;;;4.23;3.77;;;18.00;49.10;;;;;;4992405;28;20191;-43
2022/05/31 06:46:31;;;;;;;3.67;3.37;;;18.10;48.60;;;;;;4991990;28;20198;-44
2022/05/31 06:48:59;;;;;;;3.80;3.40;;;18.00;48.80;;;;;;4992833;28;20281;-43
2022/05/31 06:57:01;;;;;;;4.70;3.60;;;18.60;48.70;;;;;;4985797;28;20941;-44
2022/05/31 06:59:27;;;;;;;3.40;3.10;;;18.70;48.00;;;;;;4990693;28;20441;-44
2022/05/31 07:01:53;;;;;;;3.87;3.13;;;18.80;48.00;;;;;;4992269;28;20429;-46
2022/05/31 07:04:19;;;;;;;3.30;3.00;;;19.00;47.50;;;;;;4991978;28;20430;-43
2022/05/31 07:06:45;;;;;;;3.77;3.47;;;19.20;47.20;;;;;;4991590;28;20434;-43
2022/05/31 07:09:12;;;;;;;4.30;2.97;;;19.30;47.10;;;;;;4992077;28;20433;-45
2022/05/31 07:11:38;;;;;;;3.73;3.37;;;19.40;47.10;;;;;;4991690;28;20206;-44
2022/05/31 07:14:04;;;;;;;3.67;3.10;;;19.60;47.10;;;;;;4991549;28;20433;-45
2022/05/31 07:16:30;;;;;;;3.00;2.70;;;19.70;47.40;;;;;;4991627;28;20433;-44
2022/05/31 07:18:55;;;;;;;2.70;2.50;;;19.90;48.00;;;;;;4992013;28;20205;-43
2022/05/31 07:21:21;;;;;;;2.77;2.57;;;20.10;47.60;;;;;;4991317;28;20187;-44
2022/05/31 07:23:47;;;;;;;4.37;2.90;;;20.30;47.10;;;;;;4991374;28;20201;-47
2022/05/31 07:26:12;;;;;;;4.47;2.77;;;20.50;45.80;;;;;;4990109;28;20274;-44
2022/05/31 07:28:39;;;;;;;2.90;2.67;;;20.80;45.30;;;;;;4988145;28;20636;-44
2022/05/31 07:31:05;;;;;;;2.70;2.50;;;21.00;45.00;;;;;;4971962;28;20191;-43
2022/05/31 07:33:30;;;;;;;2.43;2.23;;;21.30;44.90;;;;;;4971753;28;20426;-43
2022/05/31 07:35:56;;;;;;;4.70;2.73;;;21.60;44.00;;;;;;4971767;28;20235;-45
2022/05/31 07:38:23;;;;;;;3.40;3.10;;;21.80;43.50;;;;;;4972307;28;20207;-48
2022/05/31 07:40:49;;;;;;;2.27;2.17;;;22.10;43.30;;;;;;4971664;28;20529;-44
2022/05/31 07:43:16;;;;;;;2.80;2.43;;;22.30;43.20;;;;;;4972046;28;20457;-46
2022/05/31 07:45:42;;;;;;;2.97;2.40;;;22.50;42.70;;;;;;4971759;28;20783;-43
2022/05/31 07:48:08;;;;;;;4.57;2.90;;;22.70;42.60;;;;;;4972080;28;20454;-45
2022/05/31 07:50:34;;;;;;;2.63;2.40;;;22.80;42.00;;;;;;4971447;28;20422;-44
2022/05/31 07:53:01;;;;;;;2.50;2.30;;;23.00;41.50;;;;;;4970324;28;20426;-46
2022/05/31 07:55:28;;;;;;;2.67;2.47;;;23.10;41.60;;;;;;4988701;28;20862;-43
2022/05/31 08:00:52;;;;;;;2.30;2.00;;;23.30;40.70;;;;;;4978517;28;20445;-47
2022/05/31 08:03:17;;;;;;;2.93;2.10;;;23.60;40.60;;;;;;4991269;28;20769;-47
2022/05/31 08:05:43;;;;;;;2.30;2.10;;;23.80;40.60;;;;;;4990895;28;20692;-43
2022/05/31 08:08:09;;;;;;;2.60;2.40;;;23.90;40.40;;;;;;4991345;28;20198;-43
2022/05/31 08:10:35;;;;;;;2.10;1.90;;;24.00;40.40;;;;;;4990455;28;20285;-43
2022/05/31 08:13:01;;;;;;;2.80;2.30;;;24.10;39.70;;;;;;4990993;28;20558;-44
2022/05/31 08:15:26;;;;;;;2.03;1.83;;;24.30;39.40;;;;;;4990728;28;20218;-43
2022/05/31 08:17:52;;;;;;;2.23;2.03;;;24.40;39.30;;;;;;4991226;28;20195;-44
2022/05/31 08:20:18;;;;;;;2.43;2.23;;;24.30;38.70;;;;;;4989639;28;20286;-44
2022/05/31 08:22:48;;;;;;;1.83;1.73;;;24.60;39.00;;;;;;4990419;28;20540;-46
2022/05/31 08:25:14;;;;;;;6.10;2.80;;;24.70;38.50;;;;;;4991065;28;20207;-43
2022/05/31 08:27:40;;;;;;;2.40;2.20;;;24.80;37.70;;;;;;4990562;28;20433;-44
2022/05/31 08:30:06;;;;;;;2.60;2.40;;;25.00;37.90;;;;;;4991059;28;20437;-43
2022/05/31 08:32:34;;;;;;;2.40;2.20;;;25.20;38.20;;;;;;4994732;28;20571;-44
2022/05/31 08:35:00;;;;;;;5.53;2.37;;;25.20;38.00;;;;;;4997560;28;20481;-47
2022/05/31 08:37:25;;;;;;;2.47;2.00;;;25.40;37.70;;;;;;4997215;28;20425;-44
2022/05/31 08:39:51;;;;;;;6.60;2.43;;;25.50;37.50;;;;;;4997786;28;20249;-44
2022/05/31 08:42:27;;;;;;;2.33;2.00;;;25.60;36.40;;;;;;4996534;28;20191;-44
2022/05/31 08:45:15;;;;;;;2.40;2.20;;;25.80;36.80;;;;;;4997628;28;20213;-44
2022/05/31 08:47:46;;;;;;;4.03;2.50;;;25.90;36.50;;;;;;4995646;28;20508;-44
2022/05/31 08:53:36;;;;;;;3.37;1.97;;;26.20;35.70;;;;;;4996935;28;20492;-46
2022/05/31 08:59:08;;;;;;;3.20;2.20;;;26.40;35.20;;;;;;4997486;28;20456;-43
2022/05/31 09:01:52;;;;;;;2.27;2.07;;;26.60;35.40;;;;;;4996710;28;20441;-48
2022/05/31 09:04:19;;;;;;;2.87;2.60;;;26.80;34.70;;;;;;4997039;28;20983;-44
2022/05/31 09:06:53;;;;;;;2.77;2.10;;;27.00;34.10;;;;;;4997025;28;20537;-43
2022/05/31 09:09:26;;;;;;;3.00;2.30;;;27.00;34.10;;;;;;4997404;28;20844;-43
2022/05/31 09:12:14;;;;;;;2.50;2.10;;;26.90;34.60;;;;;;4996655;28;20456;-43
2022/05/31 09:14:55;;;;;;;1.70;1.60;;;26.70;33.70;;;;;;4995856;28;20599;-43
2022/05/31 09:17:27;;;;;;;3.10;2.60;;;26.70;33.60;;;;;;4996326;28;20944;-44
2022/05/31 09:20:07;;;;;;;3.30;2.27;;;27.00;33.70;;;;;;4997194;28;20533;-44
2022/05/31 09:22:33;;;;;;;2.07;1.80;;;27.40;34.60;;;;;;4995808;28;20446;-43
2022/05/31 09:25:00;;;;;;;2.00;1.90;;;27.50;33.40;;;;;;4997446;28;20441;-43
2022/05/31 09:27:41;;;;;;;4.90;1.93;;;27.60;32.50;;;;;;4996664;28;20436;-44
2022/05/31 09:30:20;;;;;;;4.77;2.07;;;27.70;32.50;;;;;;4997020;28;20936;-43
2022/05/31 09:33:04;;;;;;;4.10;2.43;;;27.80;32.00;;;;;;4995900;28;20984;-43
2022/05/31 09:35:45;;;;;;;3.33;1.60;;;27.70;32.00;;;;;;4996494;28;20489;-44
2022/05/31 09:38:34;;;;;;;2.90;2.50;;;27.90;31.60;;;;;;4996848;28;20440;-45
2022/05/31 09:41:08;;;;;;;2.40;2.20;;;28.00;31.70;;;;;;4995053;28;20452;-43
2022/05/31 09:43:36;;;;;;;3.60;2.37;;;27.80;31.70;;;;;;4995038;28;20483;-43
2022/05/31 09:46:21;;;;;;;2.47;2.27;;;27.50;32.00;;;;;;4993325;28;20449;-43
2022/05/31 09:48:49;;;;;;;3.20;2.10;;;27.60;32.10;;;;;;4993577;28;20446;-43
2022/05/31 09:51:31;;;;;;;3.87;1.90;;;27.60;32.30;;;;;;4993304;28;20432;-44
2022/05/31 09:59:29;;;;;;;4.20;1.70;;;27.90;31.50;;;;;;4993620;28;20428;-44
2022/05/31 10:02:02;;;;;;;3.50;2.53;;;27.90;32.60;;;;;;4992925;28;20433;-44
2022/05/31 10:04:31;;;;;;;3.47;2.40;;;27.80;31.70;;;;;;4993331;28;20430;-44
2022/05/31 10:06:59;;;;;;;3.20;1.90;;;27.70;31.80;;;;;;4991384;28;20524;-48
2022/05/31 10:09:31;;;;;;;2.80;2.27;;;27.80;31.60;;;;;;4993628;28;20441;-47
2022/05/31 10:12:12;;;;;;;6.30;2.43;;;27.90;31.40;;;;;;4992657;28;20434;-45
2022/05/31 10:14:49;;;;;;;3.40;2.20;;;28.20;31.50;;;;;;4990955;28;20480;-44
2022/05/31 10:17:42;;;;;;;5.10;2.20;;;28.40;30.60;;;;;;4986371;28;20442;-44
2022/05/31 10:20:23;;;;;;;3.43;2.10;;;28.40;30.00;;;;;;4985751;28;20458;-44
2022/05/31 10:22:52;;;;;;;2.73;1.80;;;28.70;30.30;;;;;;4986820;28;20456;-45
2022/05/31 10:25:28;;;;;;;3.00;2.20;;;28.90;30.40;;;;;;4987423;28;20460;-45
2022/05/31 10:28:19;;;;;;;3.10;2.90;;;29.10;30.60;;;;;;4981897;28;20492;-45
2022/05/31 10:30:52;;;;;;;1.90;1.80;;;29.20;29.90;;;;;;4987667;28;20445;-45
2022/05/31 10:33:24;;;;;;;3.70;2.03;;;29.20;30.10;;;;;;4988511;28;20560;-48
2022/05/31 10:36:08;;;;;;;2.23;1.77;;;29.30;30.90;;;;;;4979379;28;20569;-45
2022/05/31 10:38:35;;;;;;;2.27;2.10;;;29.40;30.60;;;;;;4986349;28;20523;-48
2022/05/31 10:41:06;;;;;;;3.13;2.73;;;29.40;30.20;;;;;;4988277;28;20461;-46
2022/05/31 10:43:38;;;;;;;3.77;2.13;;;29.40;30.60;;;;;;4990065;28;20454;-47
2022/05/31 10:46:11;;;;;;;3.67;2.00;;;29.30;31.40;;;;;;4989322;28;20448;-45
2022/05/31 10:48:46;;;;;;;4.93;2.47;;;29.20;31.10;;;;;;4990959;28;20485;-46
2022/05/31 10:51:32;;;;;;;3.30;2.10;;;29.20;31.80;;;;;;4988982;28;20548;-46
2022/05/31 10:54:10;;;;;;;7.00;2.27;;;29.30;30.60;;;;;;4989256;28;21026;-46
2022/05/31 10:56:55;;;;;;;2.70;2.50;;;29.50;31.30;;;;;;4990727;28;20801;-44
2022/05/31 10:59:35;;;;;;;3.47;2.43;;;29.60;31.00;;;;;;4990682;28;20782;-47
2022/05/31 11:02:09;;;;;;;2.47;2.27;;;29.50;29.70;;;;;;4985532;28;20471;-44
2022/05/31 11:04:48;;;;;;;3.13;2.53;;;29.60;30.10;;;;;;4990188;28;20945;-44
2022/05/31 11:07:27;;;;;;;4.13;2.50;;;29.90;30.50;;;;;;4990910;28;20480;-44
2022/05/31 11:13:03;;;;;;;4.53;2.30;;;30.10;29.90;;;;;;4987513;28;20835;-44
2022/05/31 11:15:37;;;;;;;3.03;2.47;;;29.60;31.20;;;;;;4990729;28;20496;-44
2022/05/31 11:18:07;;;;;;;2.40;2.20;;;29.80;32.40;;;;;;4987311;28;20484;-45
2022/05/31 11:20:46;;;;;;;2.60;2.40;;;29.90;31.00;;;;;;4987819;28;20476;-46
2022/05/31 11:23:30;;;;;;;2.50;2.40;;;30.00;30.60;;;;;;4989948;28;20442;-45
2022/05/31 11:26:12;;;;;;;3.50;2.50;;;30.00;31.20;;;;;;4989392;28;20441;-45
2022/05/31 11:28:43;;;;;;;3.83;2.23;;;30.00;30.10;;;;;;4986994;28;20499;-44
2022/05/31 11:31:18;;;;;;;2.50;1.73;;;30.10;29.00;;;;;;4988152;28;20454;-46
2022/05/31 11:34:08;;;;;;;5.10;2.03;;;30.20;29.60;;;;;;4989878;28;20495;-44
2022/05/31 11:36:58;;;;;;;3.63;2.17;;;30.20;29.40;;;;;;4988299;28;20965;-45
2022/05/31 11:40:03;;;;;;;3.70;2.20;;;30.30;28.10;;;;;;4991036;28;20450;-44
2022/05/31 11:42:54;;;;;;;3.30;2.30;;;30.40;28.40;;;;;;4989417;28;20492;-45
2022/05/31 11:45:49;;;;;;;5.73;2.90;;;30.40;29.70;;;;;;4989977;28;20457;-44
2022/05/31 11:48:28;;;;;;;3.80;2.17;;;30.50;28.10;;;;;;4990923;28;20449;-44
2022/05/31 11:51:20;;;;;;;2.70;2.20;;;30.50;28.40;;;;;;4989780;28;20461;-46
2022/05/31 11:54:13;;;;;;;5.27;2.17;;;30.60;28.20;;;;;;4985386;28;20469;-44
2022/05/31 11:56:45;;;;;;;2.80;2.10;;;30.60;28.00;;;;;;4986525;28;21186;-44
2022/05/31 11:59:24;;;;;;;2.63;2.00;;;30.70;28.70;;;;;;4985914;28;20445;-44
2022/05/31 12:02:14;;;;;;;3.47;2.43;;;30.50;27.60;;;;;;4986647;28;20871;-44
2022/05/31 12:04:50;;;;;;;3.43;2.30;;;30.50;28.80;;;;;;4988139;28;20449;-45
2022/05/31 12:07:24;;;;;;;4.30;2.40;;;30.70;28.50;;;;;;4989077;28;20456;-45
2022/05/31 12:09:52;;;;;;;2.80;1.80;;;31.00;27.90;;;;;;4987962;28;20445;-45
2022/05/31 12:12:23;;;;;;;2.57;1.47;;;31.20;28.10;;;;;;4989258;28;20886;-48
2022/05/31 12:14:52;;;;;;;3.83;1.90;;;31.40;27.20;;;;;;4989674;28;20535;-45
2022/05/31 12:17:22;;;;;;;1.70;1.60;;;31.60;26.70;;;;;;4988429;28;20450;-45
2022/05/31 12:20:04;;;;;;;2.17;1.77;;;31.30;26.10;;;;;;4988451;28;20486;-45
2022/05/31 12:22:36;;;;;;;1.80;1.60;;;31.30;26.30;;;;;;4987635;28;20457;-45
2022/05/31 12:25:16;;;;;;;1.67;1.57;;;31.60;26.30;;;;;;4988638;28;20437;-45
2022/05/31 12:28:18;;;;;;;2.50;1.77;;;31.60;26.00;;;;;;4988543;28;20507;-45
2022/05/31 12:31:18;;;;;;;2.30;2.10;;;31.60;25.60;;;;;;4987792;28;21151;-45
2022/05/31 12:33:44;;;;;;;3.23;1.80;;;31.60;26.30;;;;;;4988542;28;20438;-46
2022/05/31 12:36:15;;;;;;;3.33;2.10;;;31.60;25.70;;;;;;4989556;28;20572;-46
2022/05/31 12:39:06;;;;;;;2.30;1.90;;;31.60;25.10;;;;;;5000348;28;20912;-46
2022/05/31 12:41:37;;;;;;;2.67;2.00;;;31.60;25.10;;;;;;4981474;28;20490;-47
2022/05/31 12:44:28;;;;;;;2.70;2.20;;;31.60;25.70;;;;;;4986514;28;20450;-45
2022/05/31 12:46:55;;;;;;;2.50;1.83;;;31.60;25.80;;;;;;4988914;28;20815;-45
2022/05/31 12:49:27;;;;;;;2.70;1.80;;;31.60;25.20;;;;;;4985611;28;20820;-44
2022/05/31 12:52:28;;;;;;;1.70;1.60;;;31.60;25.10;;;;;;4974971;28;21023;-44
2022/05/31 12:54:56;;;;;;;2.10;1.90;;;31.40;25.00;;;;;;4985962;28;20856;-45
2022/05/31 13:00:46;;;;;;;2.70;1.90;;;31.20;24.80;;;;;;4986308;28;20592;-45
2022/05/31 13:03:33;;;;;;;1.70;1.60;;;31.20;25.00;;;;;;4986785;28;20453;-45
2022/05/31 13:06:22;;;;;;;4.50;1.80;;;31.30;25.50;;;;;;4977750;28;20450;-46
2022/05/31 13:08:57;;;;;;;2.00;1.90;;;31.60;25.40;;;;;;4987811;28;20442;-44
2022/05/31 13:20:11;;;;;;;3.87;2.07;;;31.80;23.90;;;;;;4988926;28;20460;-47
2022/05/31 13:22:41;;;;;;;2.83;1.73;;;31.60;23.80;;;;;;4990886;28;20456;-49
2022/05/31 13:25:35;;;;;;;4.60;2.53;;;31.40;23.90;;;;;;4987968;28;20449;-46
2022/05/31 13:28:02;;;;;;;3.67;2.33;;;31.40;24.20;;;;;;4983179;28;20446;-47
2022/05/31 13:30:31;;;;;;;2.80;2.00;;;31.50;25.00;;;;;;4990363;28;20839;-44
2022/05/31 13:32:59;;;;;;;4.60;2.20;;;31.40;23.90;;;;;;4992199;28;20520;-44
2022/05/31 13:35:28;;;;;;;3.43;1.87;;;31.30;24.50;;;;;;4989246;28;20489;-44
2022/05/31 13:38:02;;;;;;;1.87;1.77;;;31.20;25.70;;;;;;4986516;28;20441;-45
2022/05/31 13:40:46;;;;;;;1.90;1.70;;;31.30;25.10;;;;;;4986749;28;20445;-44
2022/05/31 13:43:31;;;;;;;3.10;2.60;;;31.40;24.70;;;;;;4987836;28;20462;-44
2022/05/31 13:46:00;;;;;;;3.13;2.20;;;31.40;24.40;;;;;;4985111;28;20533;-44
2022/05/31 13:48:31;;;;;;;2.90;1.77;;;31.40;25.20;;;;;;4990568;28;20540;-44
2022/05/31 13:51:01;;;;;;;2.50;2.20;;;31.40;24.40;;;;;;4992142;28;20477;-45